Relevés horaires Schaffen (Belgique)


Relevés horaires à Schaffen - Vendredi 25 Août 2017
Heure UTC1 Température [°C] Vent [km/h] Hum. [%] Pres.4 [hPa] Visi. [Km] Nébu. [octa] Préc.5 [mm] Cond.
2m. Res. Ros. Dir.2 Vit. Moy. Raf.3
23:00 18.0 18.0 13.8 N 3.7 -- 5.6 76 1016(0.1/3h) 19 -- -- --
22:00 18.6 18.6 13.9 NNO 1.9 -- 3.7 74 1015.8(-0.4/3h) 20 -- -- --
21:00 19.6 19.6 13.8 N 3.7 -- 5.6 69 1016.2(0.0/3h) 20 -- -- --
20:00 20.5 20.5 13.9 NE 3.7 -- 5.6 66 1016(0.1/3h) 20 -- -- --
19:00 20.5 20.5 14.6 N 3.7 -- 5.6 69 1016.2(0.3/3h) 20 -- -- --
18:00 21.7 21.7 14.8 NNE 3.7 -- 9.3 65 1016.2(-0.5/3h) 20 -- -- Il y a de la pluie faible et continue à la station au moment de l'observation
17:00 22.8 22.8 13.5 E 3.7 -- 7.4 56 1015.7(-1.2/3h) 20 -- -- --
16:00 23.7 23.7 13.7 E 3.7 -- 7.4 53 1015.7(-1.5/3h) 20 -- -- --
15:00 23.7 23.7 13.2 E 3.7 -- 9.3 52 1016.6(-1.1/3h) 20 7/8 -- --
14:00 23.7 23.7 12.9 ESE 3.7 -- 7.4 51 1017(-0.8/3h) 20 7/8 -- --
13:00 23.4 23.4 12.6 ESE 3.7 -- 7.4 51 1017.5(-0.6/3h) 20 7/8 -- --
12:00 23.3 23.3 13.0 ENE 3.7 -- 9.3 52 1017.7(-1.0/3h) 20 7/8 -- --
11:00 23.2 23.2 12.9 NNO 1.9 -- 7.4 52 1018(-0.8/3h) 20 6/8 -- --
10:00 21.6 21.6 12.7 E 3.7 -- 9.3 57 1018.2(-0.5/3h) 20 6/8 -- --
09:00 20.3 20.3 12.4 E 3.7 -- 7.4 60 1018.7(0.1/3h) 20 6/8 -- --
08:00 18.4 18.4 12.8 NNO 1.9 -- 3.7 70 1019(0.2/3h) 20 6/8 -- --
07:00 14.8 14.8 13.1 NNO 1.9 -- 1.9 90 1018.8(0.4/3h) 20 7/8 -- --
06:00 12.9 12.9 12.1 NNO 1.9 -- 3.7 95 1018.7(0.3/3h) 20 7/8 -- --
05:00 12.6 12.6 11.7 NNO 1.9 -- 1.9 94 1018.7(0.0/3h) 20 6/8 -- --
04:00 12.3 12.3 11.7 NNO 1.9 -- 1.9 96 1018.5(-0.4/3h) 20 4/8 -- --
03:00 12.6 12.6 11.3 NNO 1.9 -- 3.7 92 1018.5(-0.3/3h) 20 -- -- --
02:00 12.3 12.3 11.3 S 3.7 -- 3.7 94 1018.7(0.1/3h) 20 -- -- --
01:00 12.9 12.9 11.6 NNO 1.9 -- 3.7 92 1018.8(0.0/3h) 20 -- -- --
00:00 14.0 14.0 11.9 NNO 1.9 -- 7.4 87 1018.7(-0.1/3h) 20 -- -- --

1 Coordinated Universal Time. Actuellement il est 12:00 locale et 11:00 UTC.

2 Le vent souffle depuis la direction indiquée vers la direction oposée.

3 Les rafales max. sont disponible 40 min après l'heure du relevé.

4 Pour les stations d'altitude (plus de 600m) le géopotentiel du niveau le plus proche de la pression obligatoire est indiqué.

5 Les stations disposant d'un diffuseur peuvent indiquer "trace". Cela signifie que des précipitations ont touchés le sol mais que la quantité est inférieure à 0.1 mm.

Récapitulatif de la journée
Température [°C] Vent [km/h] Ensoleillement4 [h] Precipitations totale5 [mm] Pression [Hpa]
Min1 Max.2 Moy.3 Max. Min Max.
11.3 24.2 0 9.3 0 h 0 min 0 1015.7 1019.0

1 Température minimale relevée entre 18:00 UTC la veille et 18:00 UTC le jour donné.

2 Température maximale relevée entre 06:00 UTC le jour donné et 06:00 UTC le lendemain.

3 Vent moyen de la journée basé sur les relevés horaires.

4 Ensoleillement en heures relevé entre 06:00 UTC la veille et 06:00 UTC le jour donné.

5 Précipitations totales tombées entre 06:00 UTC la jour donné et 06:00 UTC le lendemain.

Graphiques horaires